Terminal Aerodrome Forecast
Issued by NWS North Platte, NE

Home | Current Version | Previous Version | Text Only | Print | Product List | Glossary Off
Versions: 1 2 3 4 5 6 7 8 9 10 11 12 13 14 15 16 17 18 19 20 21

000
FTUS43 KLBF 290400 AAA
TAFVTN
TAF AMD
KVTN 290401Z 2904/2924 31012G19KT P6SM FEW060 OVC150
     FM291400 32014G22KT P6SM OVC035 PROB30 2919/2923 5SM SHRA
      OVC035=

USA.gov is the U.S. government's official web portal to all federal, state and local government web resources and services.